sensor_id;sensor_type;location;lat;lon;timestamp;temperature;humidity
53286;DHT22;39171;45.550;12.074;2022-10-04T00:14:42;20.00;78.40
53286;DHT22;39171;45.550;12.074;2022-10-04T00:33:10;20.00;78.60
53286;DHT22;39171;45.550;12.074;2022-10-04T00:39:23;20.00;78.70
53286;DHT22;39171;45.550;12.074;2022-10-04T00:45:45;20.00;78.70
53286;DHT22;39171;45.550;12.074;2022-10-04T00:51:58;20.00;78.90
53286;DHT22;39171;45.550;12.074;2022-10-04T00:58:03;19.90;78.90
53286;DHT22;39171;45.550;12.074;2022-10-04T01:04:23;19.90;79.00
53286;DHT22;39171;45.550;12.074;2022-10-04T01:10:31;19.90;79.10
53286;DHT22;39171;45.550;12.074;2022-10-04T01:16:34;19.90;79.20
53286;DHT22;39171;45.550;12.074;2022-10-04T01:22:41;19.90;79.30
53286;DHT22;39171;45.550;12.074;2022-10-04T01:28:44;19.90;79.40
53286;DHT22;39171;45.550;12.074;2022-10-04T01:34:46;19.90;79.50
53286;DHT22;39171;45.550;12.074;2022-10-04T01:40:56;19.90;79.50
53286;DHT22;39171;45.550;12.074;2022-10-04T01:47:03;19.90;79.60
53286;DHT22;39171;45.550;12.074;2022-10-04T01:53:14;19.90;79.60
53286;DHT22;39171;45.550;12.074;2022-10-04T01:59:22;19.80;79.60
53286;DHT22;39171;45.550;12.074;2022-10-04T02:05:40;19.80;79.70
53286;DHT22;39171;45.550;12.074;2022-10-04T02:11:43;19.80;79.80
53286;DHT22;39171;45.550;12.074;2022-10-04T02:17:48;19.80;79.90
53286;DHT22;39171;45.550;12.074;2022-10-04T02:23:51;19.80;79.80
53286;DHT22;39171;45.550;12.074;2022-10-04T02:29:59;19.80;79.90
53286;DHT22;39171;45.550;12.074;2022-10-04T02:36:01;19.80;80.00
53286;DHT22;39171;45.550;12.074;2022-10-04T02:42:12;19.80;80.00
53286;DHT22;39171;45.550;12.074;2022-10-04T02:54:39;19.80;80.10
53286;DHT22;39171;45.550;12.074;2022-10-04T03:00:49;19.80;80.10
53286;DHT22;39171;45.550;12.074;2022-10-04T03:06:51;19.80;80.20
53286;DHT22;39171;45.550;12.074;2022-10-04T03:12:57;19.80;80.30
53286;DHT22;39171;45.550;12.074;2022-10-04T03:18:59;19.80;80.30
53286;DHT22;39171;45.550;12.074;2022-10-04T03:25:01;19.70;80.30
53286;DHT22;39171;45.550;12.074;2022-10-04T03:31:02;19.70;80.40
53286;DHT22;39171;45.550;12.074;2022-10-04T03:37:11;19.70;80.30
53286;DHT22;39171;45.550;12.074;2022-10-04T03:43:14;19.70;80.40
53286;DHT22;39171;45.550;12.074;2022-10-04T03:49:35;19.70;80.40
53286;DHT22;39171;45.550;12.074;2022-10-04T03:55:43;19.70;80.50
53286;DHT22;39171;45.550;12.074;2022-10-04T04:01:49;19.70;80.50
53286;DHT22;39171;45.550;12.074;2022-10-04T04:08:02;19.70;80.50
53286;DHT22;39171;45.550;12.074;2022-10-04T04:14:11;19.70;80.60
53286;DHT22;39171;45.550;12.074;2022-10-04T04:20:36;19.70;80.60
53286;DHT22;39171;45.550;12.074;2022-10-04T04:26:42;19.70;80.60
53286;DHT22;39171;45.550;12.074;2022-10-04T04:32:49;19.70;80.60
53286;DHT22;39171;45.550;12.074;2022-10-04T04:38:51;19.70;80.60
53286;DHT22;39171;45.550;12.074;2022-10-04T04:45:29;19.70;80.60
53286;DHT22;39171;45.550;12.074;2022-10-04T04:51:32;19.70;80.60
53286;DHT22;39171;45.550;12.074;2022-10-04T04:57:33;19.60;80.70
53286;DHT22;39171;45.550;12.074;2022-10-04T05:03:36;19.60;80.60
53286;DHT22;39171;45.550;12.074;2022-10-04T05:09:38;19.60;80.70
53286;DHT22;39171;45.550;12.074;2022-10-04T05:15:40;19.60;80.70
53286;DHT22;39171;45.550;12.074;2022-10-04T05:21:44;19.60;80.70
53286;DHT22;39171;45.550;12.074;2022-10-04T05:27:49;19.60;80.70
53286;DHT22;39171;45.550;12.074;2022-10-04T05:33:54;19.60;80.80
53286;DHT22;39171;45.550;12.074;2022-10-04T05:46:35;19.50;80.80
53286;DHT22;39171;45.550;12.074;2022-10-04T05:52:38;19.50;80.90
53286;DHT22;39171;45.550;12.074;2022-10-04T06:12:16;19.50;80.70
53286;DHT22;39171;45.550;12.074;2022-10-04T06:18:45;19.50;80.80
53286;DHT22;39171;45.550;12.074;2022-10-04T06:24:59;19.50;80.70
53286;DHT22;39171;45.550;12.074;2022-10-04T06:31:20;19.50;80.80
53286;DHT22;39171;45.550;12.074;2022-10-04T07:02:28;19.50;80.70
53286;DHT22;39171;45.550;12.074;2022-10-04T07:08:50;19.50;80.80
53286;DHT22;39171;45.550;12.074;2022-10-04T07:14:54;19.50;80.40
53286;DHT22;39171;45.550;12.074;2022-10-04T07:21:10;19.50;80.60
53286;DHT22;39171;45.550;12.074;2022-10-04T07:33:53;19.50;80.50
53286;DHT22;39171;45.550;12.074;2022-10-04T07:40:06;19.50;80.30
53286;DHT22;39171;45.550;12.074;2022-10-04T07:46:34;19.50;80.30
53286;DHT22;39171;45.550;12.074;2022-10-04T07:59:43;19.60;80.10
53286;DHT22;39171;45.550;12.074;2022-10-04T08:12:56;19.50;80.20
53286;DHT22;39171;45.550;12.074;2022-10-04T08:31:59;19.60;80.10
53286;DHT22;39171;45.550;12.074;2022-10-04T08:51:42;19.60;79.80
53286;DHT22;39171;45.550;12.074;2022-10-04T08:58:27;19.60;79.70
53286;DHT22;39171;45.550;12.074;2022-10-04T09:17:22;19.60;79.40
53286;DHT22;39171;45.550;12.074;2022-10-04T09:29:44;19.70;79.60
53286;DHT22;39171;45.550;12.074;2022-10-04T09:36:11;19.70;79.20
53286;DHT22;39171;45.550;12.074;2022-10-04T09:42:28;19.70;79.30
53286;DHT22;39171;45.550;12.074;2022-10-04T10:01:02;19.70;78.90
53286;DHT22;39171;45.550;12.074;2022-10-04T10:58:36;19.80;77.40
53286;DHT22;39171;45.550;12.074;2022-10-04T12:08:53;20.00;75.90
53286;DHT22;39171;45.550;12.074;2022-10-04T13:00:04;20.10;75.10
53286;DHT22;39171;45.550;12.074;2022-10-04T13:06:34;20.10;75.00
53286;DHT22;39171;45.550;12.074;2022-10-04T13:19:25;20.10;74.80
53286;DHT22;39171;45.550;12.074;2022-10-04T13:32:04;20.10;74.90
53286;DHT22;39171;45.550;12.074;2022-10-04T13:45:31;20.20;74.70
53286;DHT22;39171;45.550;12.074;2022-10-04T13:51:45;20.20;74.70
53286;DHT22;39171;45.550;12.074;2022-10-04T14:10:58;20.20;74.50
53286;DHT22;39171;45.550;12.074;2022-10-04T14:36:37;20.20;74.40
53286;DHT22;39171;45.550;12.074;2022-10-04T15:20:57;20.30;74.00
53286;DHT22;39171;45.550;12.074;2022-10-04T15:33:45;20.30;73.80
53286;DHT22;39171;45.550;12.074;2022-10-04T15:59:31;20.30;73.80
53286;DHT22;39171;45.550;12.074;2022-10-04T16:12:19;20.30;73.80
53286;DHT22;39171;45.550;12.074;2022-10-04T16:31:51;20.20;74.00
53286;DHT22;39171;45.550;12.074;2022-10-04T16:44:00;20.20;74.20
53286;DHT22;39171;45.550;12.074;2022-10-04T16:50:04;20.20;74.30
53286;DHT22;39171;45.550;12.074;2022-10-04T17:09:14;20.20;74.60
53286;DHT22;39171;45.550;12.074;2022-10-04T17:15:36;20.20;74.70
53286;DHT22;39171;45.550;12.074;2022-10-04T17:21:57;20.20;74.70
53286;DHT22;39171;45.550;12.074;2022-10-04T17:35:15;20.20;74.70
53286;DHT22;39171;45.550;12.074;2022-10-04T17:54:18;20.20;74.80
53286;DHT22;39171;45.550;12.074;2022-10-04T18:01:02;20.10;74.80
53286;DHT22;39171;45.550;12.074;2022-10-04T18:07:19;20.20;74.90
53286;DHT22;39171;45.550;12.074;2022-10-04T18:13:24;20.10;74.90
53286;DHT22;39171;45.550;12.074;2022-10-04T18:19:49;20.10;74.90
53286;DHT22;39171;45.550;12.074;2022-10-04T18:26:21;20.10;75.00
53286;DHT22;39171;45.550;12.074;2022-10-04T18:38:30;20.10;75.20
53286;DHT22;39171;45.550;12.074;2022-10-04T18:44:56;20.10;75.30
53286;DHT22;39171;45.550;12.074;2022-10-04T18:57:50;20.10;75.60
53286;DHT22;39171;45.550;12.074;2022-10-04T19:04:45;20.10;75.70
53286;DHT22;39171;45.550;12.074;2022-10-04T19:10:57;20.10;75.80
53286;DHT22;39171;45.550;12.074;2022-10-04T19:17:19;20.10;76.00
53286;DHT22;39171;45.550;12.074;2022-10-04T19:48:56;20.00;76.50
53286;DHT22;39171;45.550;12.074;2022-10-04T20:01:33;20.10;76.80
53286;DHT22;39171;45.550;12.074;2022-10-04T20:07:36;20.10;76.90
53286;DHT22;39171;45.550;12.074;2022-10-04T20:13:38;20.00;77.10
53286;DHT22;39171;45.550;12.074;2022-10-04T20:19:40;20.00;77.20
53286;DHT22;39171;45.550;12.074;2022-10-04T20:31:52;20.00;77.30
53286;DHT22;39171;45.550;12.074;2022-10-04T20:44:00;20.00;77.50
53286;DHT22;39171;45.550;12.074;2022-10-04T21:02:24;20.00;77.80
53286;DHT22;39171;45.550;12.074;2022-10-04T21:08:28;20.00;77.90
53286;DHT22;39171;45.550;12.074;2022-10-04T21:14:35;20.00;78.00
53286;DHT22;39171;45.550;12.074;2022-10-04T21:20:50;20.00;78.10
53286;DHT22;39171;45.550;12.074;2022-10-04T21:26:55;20.00;78.10
53286;DHT22;39171;45.550;12.074;2022-10-04T21:32:57;20.00;78.20
53286;DHT22;39171;45.550;12.074;2022-10-04T21:38:58;20.00;78.30
53286;DHT22;39171;45.550;12.074;2022-10-04T21:45:00;20.00;78.40
53286;DHT22;39171;45.550;12.074;2022-10-04T21:51:01;20.00;78.50
53286;DHT22;39171;45.550;12.074;2022-10-04T21:57:03;20.00;78.50
53286;DHT22;39171;45.550;12.074;2022-10-04T22:03:04;20.00;78.60
53286;DHT22;39171;45.550;12.074;2022-10-04T22:09:06;20.00;78.70
53286;DHT22;39171;45.550;12.074;2022-10-04T22:15:08;19.90;78.70
53286;DHT22;39171;45.550;12.074;2022-10-04T22:21:09;19.90;78.70
53286;DHT22;39171;45.550;12.074;2022-10-04T22:27:15;20.00;78.80
53286;DHT22;39171;45.550;12.074;2022-10-04T22:33:37;19.90;78.80
53286;DHT22;39171;45.550;12.074;2022-10-04T22:39:38;19.90;78.90
53286;DHT22;39171;45.550;12.074;2022-10-04T22:45:41;19.90;78.90
53286;DHT22;39171;45.550;12.074;2022-10-04T22:51:44;19.90;78.80
53286;DHT22;39171;45.550;12.074;2022-10-04T22:57:48;19.90;78.90
53286;DHT22;39171;45.550;12.074;2022-10-04T23:03:56;19.90;78.90
53286;DHT22;39171;45.550;12.074;2022-10-04T23:09:58;20.00;78.90
53286;DHT22;39171;45.550;12.074;2022-10-04T23:16:13;19.90;78.90
53286;DHT22;39171;45.550;12.074;2022-10-04T23:22:17;19.90;78.90
53286;DHT22;39171;45.550;12.074;2022-10-04T23:28:22;19.90;79.00
53286;DHT22;39171;45.550;12.074;2022-10-04T23:34:32;19.90;79.00
53286;DHT22;39171;45.550;12.074;2022-10-04T23:40:34;19.90;79.10
53286;DHT22;39171;45.550;12.074;2022-10-04T23:46:35;19.90;79.00
53286;DHT22;39171;45.550;12.074;2022-10-04T23:52:38;19.80;79.10
53286;DHT22;39171;45.550;12.074;2022-10-04T23:58:40;19.90;79.10
